Accueil
METAR-TAF:

METAR-TAF

Aéroports :

Base aérienne 702 Avord

Avord, France

latitude: 47-03-12N, longitude: 002-37-57E, altitude: 177 m

Observation

Le bulletin a été fait il y a 20 minutes, à 06:00 UTC
Vent 8 kt de nord/nord-est
Température 3°C
Humidité 70%
Pression 1019 hPa
Visibilité 10 km ou plus
pas de nuages en-dessous de 1500 mètres et pas de cumulonimbus.

METAR: LFOA 080600Z AUTO 02008KT CAVOK 03/M02 Q1019 NOSIG

Heure: 07:20 (06:20 UTC)

Prévision

Le bulletin a été fait il y a 1 heure et 14 minutes, à 05:06 UTC
Prévision valable du 08 à 05 UTC au 09 à 03 UTC
Vent 5 kt de nord/nord-est
Visibilité 10 km ou plus
pas de nuages en-dessous de 1500 mètres et pas de cumulonimbus.

TAF: LFOA 080506Z 0805/0903 02005KT CAVOK TX10/0815Z TNM01/0903Z

Observations et prévisions météorologiques de plus de 4000 aéroports (messages METAR et TAF).

Les stations disponibles sont représentées par des disques jaunes et rouges sur la carte.

Passer la souris dessus pour voir le nom de la station.

Cliquer dessus pour voir les observations et prévisions météorologiques.

Pour changer de carte: cliquez sur les boutons verts avec une croix noire pour zoomer, sur le bouton vert avec un tiret pour effectuer un zoom arrière, ou sur les flèches vertes pour les cartes adjacentes.


METAR-TAF: